sensor_id;sensor_type;location;lat;lon;timestamp;P1;durP1;ratioP1;P2;durP2;ratioP2
69754;SDS011;57023;52.218;5.158;2024-03-08T00:01:53;44.53;;;19.02;;
69754;SDS011;57023;52.218;5.158;2024-03-08T00:04:18;41.72;;;17.52;;
69754;SDS011;57023;52.218;5.158;2024-03-08T00:06:43;39.83;;;17.10;;
69754;SDS011;57023;52.218;5.158;2024-03-08T00:09:11;42.55;;;18.35;;
69754;SDS011;57023;52.218;5.158;2024-03-08T00:11:36;39.03;;;18.00;;
69754;SDS011;57023;52.218;5.158;2024-03-08T00:14:02;44.28;;;18.48;;
69754;SDS011;57023;52.218;5.158;2024-03-08T00:16:27;40.65;;;18.95;;
69754;SDS011;57023;52.218;5.158;2024-03-08T00:18:52;39.95;;;18.08;;
69754;SDS011;57023;52.218;5.158;2024-03-08T00:21:20;38.75;;;16.45;;
69754;SDS011;57023;52.218;5.158;2024-03-08T00:23:46;41.10;;;18.15;;
69754;SDS011;57023;52.218;5.158;2024-03-08T00:26:12;37.65;;;17.08;;
69754;SDS011;57023;52.218;5.158;2024-03-08T00:28:37;49.08;;;19.92;;
69754;SDS011;57023;52.218;5.158;2024-03-08T00:31:02;39.83;;;17.50;;
69754;SDS011;57023;52.218;5.158;2024-03-08T00:33:28;43.17;;;18.98;;
69754;SDS011;57023;52.218;5.158;2024-03-08T00:35:53;44.38;;;18.25;;
69754;SDS011;57023;52.218;5.158;2024-03-08T00:38:19;42.90;;;17.95;;
69754;SDS011;57023;52.218;5.158;2024-03-08T00:40:44;40.33;;;17.67;;
69754;SDS011;57023;52.218;5.158;2024-03-08T00:43:10;40.35;;;17.98;;
69754;SDS011;57023;52.218;5.158;2024-03-08T00:45:35;41.67;;;19.00;;
69754;SDS011;57023;52.218;5.158;2024-03-08T00:48:02;38.20;;;18.02;;
69754;SDS011;57023;52.218;5.158;2024-03-08T00:50:27;42.25;;;19.10;;
69754;SDS011;57023;52.218;5.158;2024-03-08T00:52:53;43.08;;;17.08;;
69754;SDS011;57023;52.218;5.158;2024-03-08T00:55:18;40.00;;;18.88;;
69754;SDS011;57023;52.218;5.158;2024-03-08T00:57:43;41.63;;;19.20;;
69754;SDS011;57023;52.218;5.158;2024-03-08T01:00:09;36.38;;;16.95;;
69754;SDS011;57023;52.218;5.158;2024-03-08T01:02:37;39.05;;;18.80;;
69754;SDS011;57023;52.218;5.158;2024-03-08T01:05:05;38.55;;;17.42;;
69754;SDS011;57023;52.218;5.158;2024-03-08T01:07:35;39.33;;;16.75;;
69754;SDS011;57023;52.218;5.158;2024-03-08T01:10:02;41.33;;;17.90;;
69754;SDS011;57023;52.218;5.158;2024-03-08T01:12:36;35.85;;;18.00;;
69754;SDS011;57023;52.218;5.158;2024-03-08T01:15:01;39.00;;;17.30;;
69754;SDS011;57023;52.218;5.158;2024-03-08T01:17:27;41.67;;;17.63;;
69754;SDS011;57023;52.218;5.158;2024-03-08T01:19:52;40.63;;;18.55;;
69754;SDS011;57023;52.218;5.158;2024-03-08T01:22:18;44.72;;;18.92;;
69754;SDS011;57023;52.218;5.158;2024-03-08T01:24:44;39.65;;;17.92;;
69754;SDS011;57023;52.218;5.158;2024-03-08T01:27:09;43.35;;;18.55;;
69754;SDS011;57023;52.218;5.158;2024-03-08T01:29:34;40.83;;;17.83;;
69754;SDS011;57023;52.218;5.158;2024-03-08T01:32:00;43.30;;;19.55;;
69754;SDS011;57023;52.218;5.158;2024-03-08T01:34:26;40.08;;;17.38;;
69754;SDS011;57023;52.218;5.158;2024-03-08T01:36:53;39.88;;;17.73;;
69754;SDS011;57023;52.218;5.158;2024-03-08T01:39:20;36.00;;;17.52;;
69754;SDS011;57023;52.218;5.158;2024-03-08T01:41:46;32.90;;;14.75;;
69754;SDS011;57023;52.218;5.158;2024-03-08T01:44:12;39.63;;;17.08;;
69754;SDS011;57023;52.218;5.158;2024-03-08T01:46:43;35.78;;;17.05;;
69754;SDS011;57023;52.218;5.158;2024-03-08T01:49:09;42.50;;;17.88;;
69754;SDS011;57023;52.218;5.158;2024-03-08T01:51:35;39.58;;;18.02;;
69754;SDS011;57023;52.218;5.158;2024-03-08T01:54:00;40.80;;;17.10;;
69754;SDS011;57023;52.218;5.158;2024-03-08T01:56:27;38.88;;;17.30;;
69754;SDS011;57023;52.218;5.158;2024-03-08T01:58:53;34.95;;;16.90;;
69754;SDS011;57023;52.218;5.158;2024-03-08T02:01:19;41.45;;;19.00;;
69754;SDS011;57023;52.218;5.158;2024-03-08T02:03:44;39.75;;;17.48;;
69754;SDS011;57023;52.218;5.158;2024-03-08T02:06:13;40.10;;;18.33;;
69754;SDS011;57023;52.218;5.158;2024-03-08T02:08:39;40.50;;;17.77;;
69754;SDS011;57023;52.218;5.158;2024-03-08T02:11:04;40.85;;;18.85;;
69754;SDS011;57023;52.218;5.158;2024-03-08T02:13:30;36.83;;;17.27;;
69754;SDS011;57023;52.218;5.158;2024-03-08T02:15:58;39.47;;;16.80;;
69754;SDS011;57023;52.218;5.158;2024-03-08T02:18:25;39.00;;;17.38;;
69754;SDS011;57023;52.218;5.158;2024-03-08T02:20:51;40.38;;;17.85;;
69754;SDS011;57023;52.218;5.158;2024-03-08T02:23:18;41.85;;;18.15;;
69754;SDS011;57023;52.218;5.158;2024-03-08T02:25:44;42.60;;;19.10;;
69754;SDS011;57023;52.218;5.158;2024-03-08T02:28:10;39.47;;;19.05;;
69754;SDS011;57023;52.218;5.158;2024-03-08T02:30:36;38.35;;;17.73;;
69754;SDS011;57023;52.218;5.158;2024-03-08T02:33:01;43.08;;;18.70;;
69754;SDS011;57023;52.218;5.158;2024-03-08T02:35:27;36.65;;;16.70;;
69754;SDS011;57023;52.218;5.158;2024-03-08T02:37:52;41.80;;;18.17;;
69754;SDS011;57023;52.218;5.158;2024-03-08T02:40:18;39.25;;;17.17;;
69754;SDS011;57023;52.218;5.158;2024-03-08T02:42:43;39.15;;;18.05;;
69754;SDS011;57023;52.218;5.158;2024-03-08T02:45:08;40.70;;;18.60;;
69754;SDS011;57023;52.218;5.158;2024-03-08T02:47:35;38.85;;;16.15;;
69754;SDS011;57023;52.218;5.158;2024-03-08T02:50:00;39.35;;;18.05;;
69754;SDS011;57023;52.218;5.158;2024-03-08T02:52:26;40.33;;;18.27;;
69754;SDS011;57023;52.218;5.158;2024-03-08T02:54:51;43.45;;;18.00;;
69754;SDS011;57023;52.218;5.158;2024-03-08T02:57:17;40.28;;;17.98;;
69754;SDS011;57023;52.218;5.158;2024-03-08T02:59:43;38.28;;;18.15;;
69754;SDS011;57023;52.218;5.158;2024-03-08T03:02:08;40.13;;;18.75;;
69754;SDS011;57023;52.218;5.158;2024-03-08T03:04:35;37.10;;;17.48;;
69754;SDS011;57023;52.218;5.158;2024-03-08T03:07:01;42.33;;;19.02;;
69754;SDS011;57023;52.218;5.158;2024-03-08T03:09:26;41.25;;;17.83;;
69754;SDS011;57023;52.218;5.158;2024-03-08T03:11:53;42.80;;;18.70;;
69754;SDS011;57023;52.218;5.158;2024-03-08T03:14:20;43.95;;;19.40;;
69754;SDS011;57023;52.218;5.158;2024-03-08T03:16:46;40.13;;;18.83;;
69754;SDS011;57023;52.218;5.158;2024-03-08T03:19:11;37.97;;;17.95;;
69754;SDS011;57023;52.218;5.158;2024-03-08T03:21:37;40.63;;;18.23;;
69754;SDS011;57023;52.218;5.158;2024-03-08T03:24:03;42.17;;;18.38;;
69754;SDS011;57023;52.218;5.158;2024-03-08T03:26:29;42.13;;;18.75;;
69754;SDS011;57023;52.218;5.158;2024-03-08T03:28:56;43.70;;;17.80;;
69754;SDS011;57023;52.218;5.158;2024-03-08T03:31:22;38.88;;;17.40;;
69754;SDS011;57023;52.218;5.158;2024-03-08T03:33:49;42.27;;;19.53;;
69754;SDS011;57023;52.218;5.158;2024-03-08T03:36:16;38.17;;;18.20;;
69754;SDS011;57023;52.218;5.158;2024-03-08T03:38:42;43.72;;;19.70;;
69754;SDS011;57023;52.218;5.158;2024-03-08T03:41:08;41.15;;;18.98;;
69754;SDS011;57023;52.218;5.158;2024-03-08T03:43:37;46.95;;;19.73;;
69754;SDS011;57023;52.218;5.158;2024-03-08T03:46:06;41.08;;;18.88;;
69754;SDS011;57023;52.218;5.158;2024-03-08T03:48:32;46.97;;;20.00;;
69754;SDS011;57023;52.218;5.158;2024-03-08T03:50:57;42.70;;;19.13;;
69754;SDS011;57023;52.218;5.158;2024-03-08T03:53:23;39.15;;;17.77;;
69754;SDS011;57023;52.218;5.158;2024-03-08T03:55:48;39.17;;;18.20;;
69754;SDS011;57023;52.218;5.158;2024-03-08T03:58:14;45.13;;;19.48;;
69754;SDS011;57023;52.218;5.158;2024-03-08T04:00:40;44.85;;;19.42;;
69754;SDS011;57023;52.218;5.158;2024-03-08T04:03:05;40.35;;;18.83;;
69754;SDS011;57023;52.218;5.158;2024-03-08T04:05:32;43.63;;;19.45;;
69754;SDS011;57023;52.218;5.158;2024-03-08T04:07:57;41.50;;;18.90;;
69754;SDS011;57023;52.218;5.158;2024-03-08T04:10:23;40.80;;;19.95;;
69754;SDS011;57023;52.218;5.158;2024-03-08T04:12:48;40.42;;;18.83;;
69754;SDS011;57023;52.218;5.158;2024-03-08T04:15:13;42.15;;;19.33;;
69754;SDS011;57023;52.218;5.158;2024-03-08T04:17:39;40.63;;;20.50;;
69754;SDS011;57023;52.218;5.158;2024-03-08T04:20:04;42.70;;;19.13;;
69754;SDS011;57023;52.218;5.158;2024-03-08T04:22:39;34.15;;;15.07;;
69754;SDS011;57023;52.218;5.158;2024-03-08T04:25:05;40.83;;;18.42;;
69754;SDS011;57023;52.218;5.158;2024-03-08T04:27:31;42.30;;;20.25;;
69754;SDS011;57023;52.218;5.158;2024-03-08T04:29:58;44.05;;;19.42;;
69754;SDS011;57023;52.218;5.158;2024-03-08T04:32:24;43.35;;;20.27;;
69754;SDS011;57023;52.218;5.158;2024-03-08T04:34:49;36.25;;;17.33;;
69754;SDS011;57023;52.218;5.158;2024-03-08T04:37:15;44.45;;;20.15;;
69754;SDS011;57023;52.218;5.158;2024-03-08T04:39:42;39.80;;;19.05;;
69754;SDS011;57023;52.218;5.158;2024-03-08T04:42:07;41.40;;;19.95;;
69754;SDS011;57023;52.218;5.158;2024-03-08T04:44:34;44.08;;;20.10;;
69754;SDS011;57023;52.218;5.158;2024-03-08T04:47:00;45.80;;;20.13;;
69754;SDS011;57023;52.218;5.158;2024-03-08T04:49:26;41.88;;;19.33;;
69754;SDS011;57023;52.218;5.158;2024-03-08T04:51:53;42.08;;;20.83;;
69754;SDS011;57023;52.218;5.158;2024-03-08T04:54:18;40.28;;;18.48;;
69754;SDS011;57023;52.218;5.158;2024-03-08T04:56:43;45.58;;;20.02;;
69754;SDS011;57023;52.218;5.158;2024-03-08T04:59:09;39.75;;;18.58;;
69754;SDS011;57023;52.218;5.158;2024-03-08T05:01:34;40.88;;;19.20;;
69754;SDS011;57023;52.218;5.158;2024-03-08T05:04:03;41.95;;;18.95;;
69754;SDS011;57023;52.218;5.158;2024-03-08T05:06:28;45.95;;;19.75;;
69754;SDS011;57023;52.218;5.158;2024-03-08T05:08:55;41.05;;;17.88;;
69754;SDS011;57023;52.218;5.158;2024-03-08T05:11:20;42.03;;;19.50;;
69754;SDS011;57023;52.218;5.158;2024-03-08T05:13:46;43.20;;;19.00;;
69754;SDS011;57023;52.218;5.158;2024-03-08T05:16:11;43.10;;;20.85;;
69754;SDS011;57023;52.218;5.158;2024-03-08T05:18:37;39.88;;;16.58;;
69754;SDS011;57023;52.218;5.158;2024-03-08T05:21:02;42.58;;;20.00;;
69754;SDS011;57023;52.218;5.158;2024-03-08T05:23:29;42.95;;;19.92;;
69754;SDS011;57023;52.218;5.158;2024-03-08T05:25:54;40.22;;;18.75;;
69754;SDS011;57023;52.218;5.158;2024-03-08T05:28:20;36.33;;;15.77;;
69754;SDS011;57023;52.218;5.158;2024-03-08T05:30:46;37.88;;;16.90;;
69754;SDS011;57023;52.218;5.158;2024-03-08T05:33:11;42.65;;;18.73;;
69754;SDS011;57023;52.218;5.158;2024-03-08T05:35:39;45.78;;;20.00;;
69754;SDS011;57023;52.218;5.158;2024-03-08T05:38:05;44.35;;;20.38;;
69754;SDS011;57023;52.218;5.158;2024-03-08T05:40:30;41.70;;;19.65;;
69754;SDS011;57023;52.218;5.158;2024-03-08T05:42:57;39.67;;;17.67;;
69754;SDS011;57023;52.218;5.158;2024-03-08T05:45:23;43.63;;;19.23;;
69754;SDS011;57023;52.218;5.158;2024-03-08T05:47:50;42.90;;;19.75;;
69754;SDS011;57023;52.218;5.158;2024-03-08T05:50:16;41.60;;;19.00;;
69754;SDS011;57023;52.218;5.158;2024-03-08T05:52:42;43.80;;;20.38;;
69754;SDS011;57023;52.218;5.158;2024-03-08T05:55:08;42.97;;;19.13;;
69754;SDS011;57023;52.218;5.158;2024-03-08T05:57:35;36.60;;;15.25;;
69754;SDS011;57023;52.218;5.158;2024-03-08T06:00:03;42.42;;;20.10;;
69754;SDS011;57023;52.218;5.158;2024-03-08T06:02:29;47.03;;;21.63;;
69754;SDS011;57023;52.218;5.158;2024-03-08T06:04:54;41.47;;;19.00;;
69754;SDS011;57023;52.218;5.158;2024-03-08T06:07:19;41.00;;;19.65;;
69754;SDS011;57023;52.218;5.158;2024-03-08T06:09:45;40.47;;;19.52;;
69754;SDS011;57023;52.218;5.158;2024-03-08T06:12:14;45.33;;;20.52;;
69754;SDS011;57023;52.218;5.158;2024-03-08T06:14:43;43.40;;;20.23;;
69754;SDS011;57023;52.218;5.158;2024-03-08T06:17:11;42.05;;;19.10;;
69754;SDS011;57023;52.218;5.158;2024-03-08T06:19:37;43.85;;;20.23;;
69754;SDS011;57023;52.218;5.158;2024-03-08T06:22:02;43.60;;;20.08;;
69754;SDS011;57023;52.218;5.158;2024-03-08T06:24:30;42.92;;;20.13;;
69754;SDS011;57023;52.218;5.158;2024-03-08T06:26:56;43.95;;;19.92;;
69754;SDS011;57023;52.218;5.158;2024-03-08T06:29:22;41.17;;;18.55;;
69754;SDS011;57023;52.218;5.158;2024-03-08T06:31:47;41.92;;;19.73;;
69754;SDS011;57023;52.218;5.158;2024-03-08T06:34:12;45.53;;;21.33;;
69754;SDS011;57023;52.218;5.158;2024-03-08T06:39:08;37.20;;;17.50;;
69754;SDS011;57023;52.218;5.158;2024-03-08T06:41:36;45.88;;;20.92;;
69754;SDS011;57023;52.218;5.158;2024-03-08T06:44:02;41.50;;;19.63;;
69754;SDS011;57023;52.218;5.158;2024-03-08T06:46:27;40.65;;;18.98;;
69754;SDS011;57023;52.218;5.158;2024-03-08T06:48:53;40.40;;;19.08;;
69754;SDS011;57023;52.218;5.158;2024-03-08T06:51:18;43.40;;;20.30;;
69754;SDS011;57023;52.218;5.158;2024-03-08T06:53:44;41.33;;;19.25;;
69754;SDS011;57023;52.218;5.158;2024-03-08T06:56:09;42.92;;;19.85;;
69754;SDS011;57023;52.218;5.158;2024-03-08T06:58:34;45.42;;;20.85;;
69754;SDS011;57023;52.218;5.158;2024-03-08T07:01:00;41.28;;;19.50;;
69754;SDS011;57023;52.218;5.158;2024-03-08T07:03:28;45.45;;;20.10;;
69754;SDS011;57023;52.218;5.158;2024-03-08T07:05:54;39.50;;;19.48;;
69754;SDS011;57023;52.218;5.158;2024-03-08T07:08:21;40.75;;;19.73;;
69754;SDS011;57023;52.218;5.158;2024-03-08T07:10:48;43.75;;;21.10;;
69754;SDS011;57023;52.218;5.158;2024-03-08T07:13:14;37.95;;;17.80;;
69754;SDS011;57023;52.218;5.158;2024-03-08T07:15:39;39.17;;;19.10;;
69754;SDS011;57023;52.218;5.158;2024-03-08T07:18:05;40.67;;;19.38;;
69754;SDS011;57023;52.218;5.158;2024-03-08T07:20:30;40.80;;;19.83;;
69754;SDS011;57023;52.218;5.158;2024-03-08T07:22:59;42.70;;;20.58;;
69754;SDS011;57023;52.218;5.158;2024-03-08T07:25:25;39.85;;;18.50;;
69754;SDS011;57023;52.218;5.158;2024-03-08T07:27:54;40.42;;;20.10;;
69754;SDS011;57023;52.218;5.158;2024-03-08T07:30:20;40.05;;;18.58;;
69754;SDS011;57023;52.218;5.158;2024-03-08T07:33:05;42.00;;;20.10;;
69754;SDS011;57023;52.218;5.158;2024-03-08T07:35:32;40.83;;;20.08;;
69754;SDS011;57023;52.218;5.158;2024-03-08T07:37:57;42.33;;;19.60;;
69754;SDS011;57023;52.218;5.158;2024-03-08T07:40:24;35.72;;;18.27;;
69754;SDS011;57023;52.218;5.158;2024-03-08T07:42:50;39.63;;;19.90;;
69754;SDS011;57023;52.218;5.158;2024-03-08T07:45:16;38.08;;;18.13;;
69754;SDS011;57023;52.218;5.158;2024-03-08T07:47:41;38.65;;;19.38;;
69754;SDS011;57023;52.218;5.158;2024-03-08T07:50:07;41.28;;;21.15;;
69754;SDS011;57023;52.218;5.158;2024-03-08T07:52:33;41.72;;;20.35;;
69754;SDS011;57023;52.218;5.158;2024-03-08T07:54:59;43.53;;;19.20;;
69754;SDS011;57023;52.218;5.158;2024-03-08T07:57:25;39.33;;;19.20;;
69754;SDS011;57023;52.218;5.158;2024-03-08T07:59:51;44.35;;;21.20;;
69754;SDS011;57023;52.218;5.158;2024-03-08T08:02:16;37.58;;;20.23;;
69754;SDS011;57023;52.218;5.158;2024-03-08T08:04:41;40.00;;;20.58;;
69754;SDS011;57023;52.218;5.158;2024-03-08T08:07:07;32.60;;;15.73;;
69754;SDS011;57023;52.218;5.158;2024-03-08T08:09:33;37.78;;;18.88;;
69754;SDS011;57023;52.218;5.158;2024-03-08T08:11:59;43.88;;;20.48;;
69754;SDS011;57023;52.218;5.158;2024-03-08T08:14:27;43.95;;;19.33;;
69754;SDS011;57023;52.218;5.158;2024-03-08T08:16:52;39.63;;;19.88;;
69754;SDS011;57023;52.218;5.158;2024-03-08T08:19:18;36.72;;;18.45;;
69754;SDS011;57023;52.218;5.158;2024-03-08T08:21:44;40.45;;;21.42;;
69754;SDS011;57023;52.218;5.158;2024-03-08T08:24:09;36.00;;;18.55;;
69754;SDS011;57023;52.218;5.158;2024-03-08T08:26:35;40.67;;;20.42;;
69754;SDS011;57023;52.218;5.158;2024-03-08T08:29:01;39.72;;;19.70;;
69754;SDS011;57023;52.218;5.158;2024-03-08T08:31:26;39.13;;;19.40;;
69754;SDS011;57023;52.218;5.158;2024-03-08T08:33:52;32.38;;;17.23;;
69754;SDS011;57023;52.218;5.158;2024-03-08T08:36:23;40.70;;;20.83;;
69754;SDS011;57023;52.218;5.158;2024-03-08T08:38:48;37.63;;;20.38;;
69754;SDS011;57023;52.218;5.158;2024-03-08T08:41:13;38.20;;;20.08;;
69754;SDS011;57023;52.218;5.158;2024-03-08T08:43:39;41.33;;;20.88;;
69754;SDS011;57023;52.218;5.158;2024-03-08T08:46:04;40.65;;;20.75;;
69754;SDS011;57023;52.218;5.158;2024-03-08T08:48:30;41.70;;;20.35;;
69754;SDS011;57023;52.218;5.158;2024-03-08T08:50:55;31.35;;;16.42;;
69754;SDS011;57023;52.218;5.158;2024-03-08T08:53:21;33.65;;;18.00;;
69754;SDS011;57023;52.218;5.158;2024-03-08T08:55:47;35.80;;;19.00;;
69754;SDS011;57023;52.218;5.158;2024-03-08T08:58:12;37.10;;;19.45;;
69754;SDS011;57023;52.218;5.158;2024-03-08T09:00:38;33.50;;;19.20;;
69754;SDS011;57023;52.218;5.158;2024-03-08T09:03:04;37.92;;;19.67;;
69754;SDS011;57023;52.218;5.158;2024-03-08T09:07:57;35.33;;;17.92;;
69754;SDS011;57023;52.218;5.158;2024-03-08T09:10:22;39.03;;;19.15;;
69754;SDS011;57023;52.218;5.158;2024-03-08T09:12:48;34.90;;;19.10;;
69754;SDS011;57023;52.218;5.158;2024-03-08T09:15:13;36.20;;;20.23;;
69754;SDS011;57023;52.218;5.158;2024-03-08T09:17:42;34.90;;;19.55;;
69754;SDS011;57023;52.218;5.158;2024-03-08T09:20:09;35.35;;;18.55;;
69754;SDS011;57023;52.218;5.158;2024-03-08T09:22:35;38.15;;;19.77;;
69754;SDS011;57023;52.218;5.158;2024-03-08T09:25:01;31.52;;;17.20;;
69754;SDS011;57023;52.218;5.158;2024-03-08T09:27:26;35.13;;;19.67;;
69754;SDS011;57023;52.218;5.158;2024-03-08T09:29:53;33.97;;;19.23;;
69754;SDS011;57023;52.218;5.158;2024-03-08T09:32:18;33.53;;;18.42;;
69754;SDS011;57023;52.218;5.158;2024-03-08T09:34:43;32.47;;;18.27;;
69754;SDS011;57023;52.218;5.158;2024-03-08T09:37:09;31.20;;;17.77;;
69754;SDS011;57023;52.218;5.158;2024-03-08T09:39:34;35.63;;;19.85;;
69754;SDS011;57023;52.218;5.158;2024-03-08T09:42:00;33.47;;;18.90;;
69754;SDS011;57023;52.218;5.158;2024-03-08T09:44:26;33.17;;;19.98;;
69754;SDS011;57023;52.218;5.158;2024-03-08T09:46:53;34.17;;;19.33;;
69754;SDS011;57023;52.218;5.158;2024-03-08T09:49:19;33.03;;;17.77;;
69754;SDS011;57023;52.218;5.158;2024-03-08T09:51:45;31.60;;;18.58;;
69754;SDS011;57023;52.218;5.158;2024-03-08T09:54:11;33.17;;;19.10;;
69754;SDS011;57023;52.218;5.158;2024-03-08T09:56:37;35.80;;;19.60;;
69754;SDS011;57023;52.218;5.158;2024-03-08T09:59:06;34.75;;;19.35;;
69754;SDS011;57023;52.218;5.158;2024-03-08T10:01:50;30.77;;;18.20;;
69754;SDS011;57023;52.218;5.158;2024-03-08T10:04:17;34.10;;;19.40;;
69754;SDS011;57023;52.218;5.158;2024-03-08T10:06:43;30.55;;;19.13;;
69754;SDS011;57023;52.218;5.158;2024-03-08T10:09:09;32.08;;;19.30;;
69754;SDS011;57023;52.218;5.158;2024-03-08T10:11:35;34.45;;;18.75;;
69754;SDS011;57023;52.218;5.158;2024-03-08T10:14:00;27.88;;;17.52;;
69754;SDS011;57023;52.218;5.158;2024-03-08T10:16:29;32.42;;;18.88;;
69754;SDS011;57023;52.218;5.158;2024-03-08T10:18:56;29.40;;;17.88;;
69754;SDS011;57023;52.218;5.158;2024-03-08T10:21:21;30.95;;;16.95;;
69754;SDS011;57023;52.218;5.158;2024-03-08T10:23:47;30.85;;;18.40;;
69754;SDS011;57023;52.218;5.158;2024-03-08T10:26:14;28.55;;;17.42;;
69754;SDS011;57023;52.218;5.158;2024-03-08T10:28:46;28.80;;;17.65;;
69754;SDS011;57023;52.218;5.158;2024-03-08T10:31:13;29.73;;;18.15;;
69754;SDS011;57023;52.218;5.158;2024-03-08T10:33:40;28.35;;;17.42;;
69754;SDS011;57023;52.218;5.158;2024-03-08T10:36:09;30.42;;;18.00;;
69754;SDS011;57023;52.218;5.158;2024-03-08T10:38:36;27.33;;;17.13;;
69754;SDS011;57023;52.218;5.158;2024-03-08T10:41:03;27.83;;;16.08;;
69754;SDS011;57023;52.218;5.158;2024-03-08T10:43:31;31.35;;;17.55;;
69754;SDS011;57023;52.218;5.158;2024-03-08T10:46:46;30.13;;;17.67;;
69754;SDS011;57023;52.218;5.158;2024-03-08T10:49:11;31.40;;;17.30;;
69754;SDS011;57023;52.218;5.158;2024-03-08T10:51:39;26.48;;;16.98;;
69754;SDS011;57023;52.218;5.158;2024-03-08T10:54:07;27.85;;;16.17;;
69754;SDS011;57023;52.218;5.158;2024-03-08T10:56:32;29.77;;;17.65;;
69754;SDS011;57023;52.218;5.158;2024-03-08T10:58:58;29.65;;;16.60;;
69754;SDS011;57023;52.218;5.158;2024-03-08T11:01:23;29.73;;;17.52;;
69754;SDS011;57023;52.218;5.158;2024-03-08T11:03:51;27.65;;;17.05;;
69754;SDS011;57023;52.218;5.158;2024-03-08T11:07:03;27.92;;;16.30;;
69754;SDS011;57023;52.218;5.158;2024-03-08T11:14:44;25.73;;;16.75;;
69754;SDS011;57023;52.218;5.158;2024-03-08T11:17:13;26.38;;;15.73;;
69754;SDS011;57023;52.218;5.158;2024-03-08T11:19:44;26.13;;;17.15;;
69754;SDS011;57023;52.218;5.158;2024-03-08T11:22:32;24.92;;;15.57;;
69754;SDS011;57023;52.218;5.158;2024-03-08T11:24:58;27.65;;;17.58;;
69754;SDS011;57023;52.218;5.158;2024-03-08T11:27:28;28.58;;;17.20;;
69754;SDS011;57023;52.218;5.158;2024-03-08T11:30:04;26.83;;;17.33;;
69754;SDS011;57023;52.218;5.158;2024-03-08T11:32:36;26.77;;;17.52;;
69754;SDS011;57023;52.218;5.158;2024-03-08T11:35:05;26.13;;;18.00;;
69754;SDS011;57023;52.218;5.158;2024-03-08T11:37:35;25.73;;;17.70;;
69754;SDS011;57023;52.218;5.158;2024-03-08T11:40:01;25.92;;;17.50;;
69754;SDS011;57023;52.218;5.158;2024-03-08T11:42:29;24.50;;;17.73;;
69754;SDS011;57023;52.218;5.158;2024-03-08T11:44:58;26.27;;;17.98;;
69754;SDS011;57023;52.218;5.158;2024-03-08T11:47:23;22.73;;;16.60;;
69754;SDS011;57023;52.218;5.158;2024-03-08T11:49:51;25.05;;;17.27;;
69754;SDS011;57023;52.218;5.158;2024-03-08T11:52:18;24.88;;;16.90;;
69754;SDS011;57023;52.218;5.158;2024-03-08T11:54:54;24.70;;;16.90;;
69754;SDS011;57023;52.218;5.158;2024-03-08T11:57:24;24.20;;;17.42;;
69754;SDS011;57023;52.218;5.158;2024-03-08T11:59:51;22.45;;;16.65;;
69754;SDS011;57023;52.218;5.158;2024-03-08T12:02:16;23.42;;;16.85;;
69754;SDS011;57023;52.218;5.158;2024-03-08T12:04:44;22.02;;;16.20;;
69754;SDS011;57023;52.218;5.158;2024-03-08T12:07:11;21.20;;;15.75;;
69754;SDS011;57023;52.218;5.158;2024-03-08T12:09:37;22.02;;;17.05;;
69754;SDS011;57023;52.218;5.158;2024-03-08T12:12:03;22.17;;;16.55;;
69754;SDS011;57023;52.218;5.158;2024-03-08T12:14:30;24.17;;;16.93;;
69754;SDS011;57023;52.218;5.158;2024-03-08T12:16:57;23.40;;;16.33;;
69754;SDS011;57023;52.218;5.158;2024-03-08T12:19:25;20.13;;;15.73;;
69754;SDS011;57023;52.218;5.158;2024-03-08T12:21:50;22.60;;;15.23;;
69754;SDS011;57023;52.218;5.158;2024-03-08T12:24:16;21.05;;;14.55;;
69754;SDS011;57023;52.218;5.158;2024-03-08T12:26:44;23.55;;;16.63;;
69754;SDS011;57023;52.218;5.158;2024-03-08T12:31:44;22.48;;;15.48;;
69754;SDS011;57023;52.218;5.158;2024-03-08T12:34:11;19.50;;;14.55;;
69754;SDS011;57023;52.218;5.158;2024-03-08T12:39:04;19.97;;;12.47;;
69754;SDS011;57023;52.218;5.158;2024-03-08T12:41:30;18.83;;;13.32;;
69754;SDS011;57023;52.218;5.158;2024-03-08T12:43:57;19.80;;;14.93;;
69754;SDS011;57023;52.218;5.158;2024-03-08T12:46:23;19.98;;;15.13;;
69754;SDS011;57023;52.218;5.158;2024-03-08T12:48:51;18.70;;;15.02;;
69754;SDS011;57023;52.218;5.158;2024-03-08T12:53:44;23.43;;;15.07;;
69754;SDS011;57023;52.218;5.158;2024-03-08T12:56:10;18.75;;;14.55;;
69754;SDS011;57023;52.218;5.158;2024-03-08T12:58:36;20.00;;;14.88;;
69754;SDS011;57023;52.218;5.158;2024-03-08T13:01:03;21.58;;;15.60;;
69754;SDS011;57023;52.218;5.158;2024-03-08T13:03:30;20.67;;;15.75;;
69754;SDS011;57023;52.218;5.158;2024-03-08T13:05:56;18.05;;;15.48;;
69754;SDS011;57023;52.218;5.158;2024-03-08T13:08:22;17.80;;;13.85;;
69754;SDS011;57023;52.218;5.158;2024-03-08T13:10:49;18.90;;;14.52;;
69754;SDS011;57023;52.218;5.158;2024-03-08T13:13:16;18.27;;;15.05;;
69754;SDS011;57023;52.218;5.158;2024-03-08T13:15:42;19.63;;;15.20;;
69754;SDS011;57023;52.218;5.158;2024-03-08T13:18:07;18.63;;;14.10;;
69754;SDS011;57023;52.218;5.158;2024-03-08T13:20:34;20.60;;;16.00;;
69754;SDS011;57023;52.218;5.158;2024-03-08T13:23:02;19.40;;;15.30;;
69754;SDS011;57023;52.218;5.158;2024-03-08T13:25:28;21.23;;;15.97;;
69754;SDS011;57023;52.218;5.158;2024-03-08T13:27:53;21.57;;;16.47;;
69754;SDS011;57023;52.218;5.158;2024-03-08T13:30:21;18.27;;;14.82;;
69754;SDS011;57023;52.218;5.158;2024-03-08T13:32:49;18.95;;;15.35;;
69754;SDS011;57023;52.218;5.158;2024-03-08T13:35:17;19.50;;;15.63;;
69754;SDS011;57023;52.218;5.158;2024-03-08T13:37:49;20.52;;;15.23;;
69754;SDS011;57023;52.218;5.158;2024-03-08T13:40:14;21.30;;;15.80;;
69754;SDS011;57023;52.218;5.158;2024-03-08T13:42:43;20.88;;;15.88;;
69754;SDS011;57023;52.218;5.158;2024-03-08T13:45:09;21.90;;;15.70;;
69754;SDS011;57023;52.218;5.158;2024-03-08T13:47:41;20.65;;;16.27;;
69754;SDS011;57023;52.218;5.158;2024-03-08T13:50:06;20.38;;;15.82;;
69754;SDS011;57023;52.218;5.158;2024-03-08T13:52:37;22.35;;;16.45;;
69754;SDS011;57023;52.218;5.158;2024-03-08T13:55:03;20.65;;;16.67;;
69754;SDS011;57023;52.218;5.158;2024-03-08T13:59:55;21.93;;;15.60;;
69754;SDS011;57023;52.218;5.158;2024-03-08T14:02:20;21.87;;;16.10;;
69754;SDS011;57023;52.218;5.158;2024-03-08T14:04:47;21.65;;;15.88;;
69754;SDS011;57023;52.218;5.158;2024-03-08T14:07:14;20.77;;;16.33;;
69754;SDS011;57023;52.218;5.158;2024-03-08T14:09:41;20.20;;;15.23;;
69754;SDS011;57023;52.218;5.158;2024-03-08T14:14:33;20.40;;;15.50;;
69754;SDS011;57023;52.218;5.158;2024-03-08T14:17:00;22.40;;;16.77;;
69754;SDS011;57023;52.218;5.158;2024-03-08T14:19:26;22.83;;;16.65;;
69754;SDS011;57023;52.218;5.158;2024-03-08T14:21:52;21.17;;;16.30;;
69754;SDS011;57023;52.218;5.158;2024-03-08T14:24:18;20.60;;;16.65;;
69754;SDS011;57023;52.218;5.158;2024-03-08T14:26:44;22.50;;;17.30;;
69754;SDS011;57023;52.218;5.158;2024-03-08T14:29:10;20.23;;;16.00;;
69754;SDS011;57023;52.218;5.158;2024-03-08T14:31:35;21.00;;;16.77;;
69754;SDS011;57023;52.218;5.158;2024-03-08T14:34:01;21.52;;;16.42;;
69754;SDS011;57023;52.218;5.158;2024-03-08T14:36:29;21.23;;;16.05;;
69754;SDS011;57023;52.218;5.158;2024-03-08T14:38:55;21.00;;;15.93;;
69754;SDS011;57023;52.218;5.158;2024-03-08T14:41:20;21.00;;;16.00;;